Time;durP1;ratioP1;P1;durP2;ratioP2;P2;SDS_P1;SDS_P2;PMS_P1;PMS_P2;Temp;Humidity;BMP_temperature;BMP_pressure;BME280_temperature;BME280_humidity;BME280_pressure;Samples;Min_cycle;Max_cycle;Signal;HPM_P1;HPM_P2
2023/11/28 00:00:48;;;;;;;51.17;6.93;;;8.00;98.40;;;;;;4968582;28;20029;-63
2023/11/28 00:03:14;;;;;;;38.10;6.18;;;8.00;98.40;;;;;;4983437;28;20042;-63
2023/11/28 00:05:40;;;;;;;40.97;6.25;;;7.90;98.50;;;;;;4983457;28;20038;-62
2023/11/28 00:08:06;;;;;;;31.55;6.07;;;7.90;98.50;;;;;;4968534;28;20031;-63
2023/11/28 00:10:32;;;;;;;48.28;6.80;;;7.90;98.50;;;;;;4983242;28;20023;-63
2023/11/28 00:12:57;;;;;;;49.80;7.50;;;7.90;98.60;;;;;;4983626;28;20045;-62
2023/11/28 00:15:23;;;;;;;34.78;6.53;;;7.90;98.50;;;;;;4983133;28;20083;-63
2023/11/28 00:17:48;;;;;;;36.65;6.00;;;7.90;98.50;;;;;;4983402;28;20031;-63
2023/11/28 00:20:14;;;;;;;31.08;5.80;;;7.90;98.50;;;;;;4967015;29;20031;-63
2023/11/28 00:22:39;;;;;;;36.92;5.53;;;7.90;98.50;;;;;;4983181;28;20031;-64
2023/11/28 00:25:06;;;;;;;22.70;5.25;;;7.90;98.50;;;;;;4983117;28;20023;-64
2023/11/28 00:27:32;;;;;;;32.97;5.95;;;7.90;98.50;;;;;;4983169;28;20037;-64
2023/11/28 00:29:57;;;;;;;24.67;4.15;;;7.90;98.50;;;;;;4966896;29;20051;-63
2023/11/28 00:32:23;;;;;;;43.53;5.80;;;7.90;98.50;;;;;;4968247;28;20035;-64
2023/11/28 00:34:49;;;;;;;33.45;6.65;;;7.90;98.50;;;;;;4968155;28;20027;-64
2023/11/28 00:37:14;;;;;;;28.90;5.15;;;7.90;98.60;;;;;;4968026;29;20046;-63
2023/11/28 00:39:40;;;;;;;24.13;4.90;;;7.90;98.50;;;;;;4967972;29;20039;-63
2023/11/28 00:42:06;;;;;;;25.98;5.63;;;7.80;98.50;;;;;;4982712;28;20067;-63
2023/11/28 00:44:31;;;;;;;32.25;4.72;;;7.80;98.50;;;;;;4982448;28;20028;-64
2023/11/28 00:46:57;;;;;;;27.42;4.97;;;7.80;98.60;;;;;;4982851;28;20034;-63
2023/11/28 00:49:23;;;;;;;34.08;5.13;;;7.80;98.60;;;;;;4982815;28;20027;-63
2023/11/28 00:51:48;;;;;;;28.35;4.55;;;7.80;98.60;;;;;;4982889;28;20046;-63
2023/11/28 00:54:14;;;;;;;28.42;4.80;;;7.80;98.60;;;;;;4982819;28;20024;-63
2023/11/28 00:56:40;;;;;;;30.90;4.20;;;7.80;98.60;;;;;;4982680;28;20043;-63
2023/11/28 00:59:05;;;;;;;27.58;4.22;;;7.80;98.60;;;;;;4967717;28;20031;-63
2023/11/28 01:01:31;;;;;;;23.73;4.35;;;7.80;98.60;;;;;;4967646;28;20141;-63
2023/11/28 01:03:57;;;;;;;28.33;4.78;;;7.80;98.60;;;;;;4966569;29;20023;-63
2023/11/28 01:06:22;;;;;;;19.08;4.15;;;7.80;98.60;;;;;;4934753;29;20361;-63
2023/11/28 01:08:48;;;;;;;22.95;5.03;;;7.80;98.60;;;;;;4967824;28;20034;-63
2023/11/28 01:11:14;;;;;;;23.27;4.05;;;7.70;98.60;;;;;;4966363;29;20038;-62
2023/11/28 01:13:40;;;;;;;24.77;3.75;;;7.70;98.70;;;;;;4967989;28;20051;-62
2023/11/28 01:16:08;;;;;;;21.08;3.45;;;7.70;98.70;;;;;;4967730;28;20075;-63
2023/11/28 01:18:33;;;;;;;24.25;3.63;;;7.70;98.70;;;;;;4950803;29;20035;-62
2023/11/28 01:20:59;;;;;;;19.10;3.53;;;7.70;98.70;;;;;;4967596;28;20030;-63
2023/11/28 01:23:25;;;;;;;18.80;3.80;;;7.70;98.70;;;;;;4950329;29;20027;-62
2023/11/28 01:25:50;;;;;;;15.10;3.20;;;7.70;98.70;;;;;;4966535;29;20039;-63
2023/11/28 01:28:16;;;;;;;15.50;3.05;;;7.70;98.80;;;;;;4967638;28;20136;-64
2023/11/28 01:30:42;;;;;;;22.83;3.97;;;7.70;98.80;;;;;;4967625;28;20114;-62
2023/11/28 01:33:08;;;;;;;13.68;2.90;;;7.60;98.80;;;;;;4967782;28;20039;-63
2023/11/28 01:35:33;;;;;;;15.75;3.17;;;7.60;98.80;;;;;;4967562;29;20035;-62
2023/11/28 01:37:59;;;;;;;17.73;3.05;;;7.60;98.80;;;;;;4966064;29;20043;-63
2023/11/28 01:40:24;;;;;;;19.55;2.75;;;7.60;98.80;;;;;;4966278;28;20028;-62
2023/11/28 01:42:50;;;;;;;17.35;2.97;;;7.70;98.90;;;;;;4934386;29;20034;-63
2023/11/28 01:45:16;;;;;;;15.57;3.10;;;7.60;98.90;;;;;;4950266;29;20031;-62
2023/11/28 01:47:42;;;;;;;19.40;2.50;;;7.70;98.90;;;;;;4967495;28;20051;-63
2023/11/28 01:50:08;;;;;;;9.73;2.72;;;7.60;98.90;;;;;;4966326;28;20030;-62
2023/11/28 01:52:34;;;;;;;12.38;2.83;;;7.60;98.90;;;;;;4950348;28;20032;-62
2023/11/28 01:55:03;;;;;;;11.93;2.35;;;7.60;98.90;;;;;;4967344;28;20028;-63
2023/11/28 01:57:29;;;;;;;11.30;2.83;;;7.60;99.20;;;;;;4969734;28;20068;-62
2023/11/28 01:59:54;;;;;;;12.32;2.45;;;7.60;99.00;;;;;;4953692;29;20035;-62
2023/11/28 02:02:20;;;;;;;12.45;2.58;;;7.60;99.00;;;;;;4969595;28;20517;-62
2023/11/28 02:04:47;;;;;;;16.38;2.78;;;7.60;99.00;;;;;;4953586;29;20023;-63
2023/11/28 02:07:14;;;;;;;10.18;2.42;;;7.60;99.00;;;;;;4953622;29;20040;-62
2023/11/28 02:09:39;;;;;;;13.23;2.40;;;7.60;99.10;;;;;;4953665;28;20043;-63
2023/11/28 02:12:06;;;;;;;11.20;2.45;;;7.60;99.10;;;;;;4953545;28;20083;-63
2023/11/28 02:14:31;;;;;;;15.75;2.50;;;7.60;99.10;;;;;;4953928;29;20046;-62
2023/11/28 02:16:57;;;;;;;18.55;2.65;;;7.60;99.10;;;;;;4970439;29;20035;-62
2023/11/28 02:19:23;;;;;;;12.75;2.25;;;7.60;99.10;;;;;;4970405;28;20034;-62
2023/11/28 02:21:48;;;;;;;11.48;2.33;;;7.60;99.20;;;;;;4969197;28;20122;-63
2023/11/28 02:24:14;;;;;;;12.80;2.58;;;7.50;99.20;;;;;;4937820;29;20027;-62
2023/11/28 02:26:40;;;;;;;8.57;2.25;;;7.60;99.30;;;;;;4953471;29;20032;-63
2023/11/28 02:29:05;;;;;;;8.77;1.92;;;7.60;99.30;;;;;;4970736;28;20082;-63
2023/11/28 02:31:31;;;;;;;13.90;2.60;;;7.60;99.30;;;;;;4968949;28;20020;-63
2023/11/28 02:33:58;;;;;;;10.90;2.85;;;7.50;99.20;;;;;;4952916;29;20396;-62
2023/11/28 02:36:23;;;;;;;9.00;2.08;;;7.60;99.30;;;;;;4970135;29;20031;-63
2023/11/28 02:38:49;;;;;;;8.20;1.90;;;7.50;99.30;;;;;;4968585;28;20122;-63
2023/11/28 02:41:15;;;;;;;7.75;1.80;;;7.60;99.30;;;;;;4968675;28;20476;-62
2023/11/28 02:43:40;;;;;;;13.25;2.22;;;7.60;99.30;;;;;;4969995;29;20480;-63
2023/11/28 02:46:06;;;;;;;12.40;2.45;;;7.60;99.30;;;;;;4952974;29;20027;-62
2023/11/28 02:48:31;;;;;;;15.07;2.03;;;7.60;99.30;;;;;;4970813;29;20062;-63
2023/11/28 02:50:57;;;;;;;11.50;2.10;;;7.50;99.30;;;;;;4953518;29;20027;-63
2023/11/28 02:53:23;;;;;;;8.20;2.10;;;7.60;99.40;;;;;;4970033;29;20059;-62
2023/11/28 02:55:48;;;;;;;12.27;2.10;;;7.50;99.40;;;;;;4968627;29;20059;-63
2023/11/28 02:58:14;;;;;;;9.98;1.80;;;7.50;99.30;;;;;;4968540;28;20035;-62
2023/11/28 03:00:39;;;;;;;7.78;1.90;;;7.50;99.30;;;;;;4969793;28;20032;-62
2023/11/28 03:03:05;;;;;;;8.73;1.90;;;7.60;99.40;;;;;;4952579;29;20507;-63
2023/11/28 03:05:31;;;;;;;8.38;1.67;;;7.50;99.30;;;;;;4968511;28;20043;-63
2023/11/28 03:07:57;;;;;;;11.13;2.55;;;7.50;99.40;;;;;;4952485;29;20036;-64
2023/11/28 03:10:22;;;;;;;11.45;2.08;;;7.60;99.40;;;;;;4968448;29;20028;-64
2023/11/28 03:12:48;;;;;;;3.05;1.40;;;7.50;99.40;;;;;;4968258;28;20122;-63
2023/11/28 03:15:14;;;;;;;3.90;1.73;;;7.50;99.50;;;;;;4968206;28;20031;-64
2023/11/28 03:17:39;;;;;;;8.20;2.67;;;7.60;99.50;;;;;;4968080;29;20050;-63
2023/11/28 03:20:06;;;;;;;6.35;2.15;;;7.50;99.50;;;;;;4968040;28;20019;-63
2023/11/28 03:22:32;;;;;;;7.63;2.05;;;7.50;99.50;;;;;;4952165;29;20034;-64
2023/11/28 03:25:07;;;;;;;5.80;1.98;;;7.60;99.50;;;;;;4968112;28;20027;-64
2023/11/28 03:27:32;;;;;;;5.35;2.08;;;7.50;99.50;;;;;;4968129;29;20065;-64
2023/11/28 03:29:58;;;;;;;6.25;1.90;;;7.60;99.60;;;;;;4968054;28;20464;-64
2023/11/28 03:32:23;;;;;;;4.57;2.00;;;7.50;99.60;;;;;;4969130;28;20031;-64
2023/11/28 03:34:49;;;;;;;9.02;2.15;;;7.60;99.80;;;;;;4969027;29;20038;-63
2023/11/28 03:37:15;;;;;;;6.13;2.17;;;7.60;99.80;;;;;;4967774;28;20070;-64
2023/11/28 03:39:43;;;;;;;5.03;2.13;;;7.50;99.80;;;;;;4951673;29;20031;-64
2023/11/28 03:42:09;;;;;;;4.78;1.70;;;7.60;99.90;;;;;;4935958;29;20047;-63
2023/11/28 03:44:34;;;;;;;6.78;2.20;;;7.50;99.90;;;;;;4967651;29;20089;-64
2023/11/28 03:47:00;;;;;;;3.65;1.73;;;7.50;99.90;;;;;;4951612;29;20036;-64
2023/11/28 03:49:26;;;;;;;6.90;1.90;;;7.50;99.90;;;;;;4967628;29;20034;-63
2023/11/28 03:51:51;;;;;;;5.00;1.42;;;7.60;99.90;;;;;;4969035;29;20059;-64
2023/11/28 03:54:19;;;;;;;6.10;1.65;;;7.60;99.90;;;;;;4935380;29;20560;-63
2023/11/28 03:56:45;;;;;;;7.07;2.03;;;7.50;99.90;;;;;;4952389;29;20035;-64
2023/11/28 03:59:10;;;;;;;5.15;1.80;;;7.50;99.90;;;;;;4951585;29;20058;-63
2023/11/28 04:01:36;;;;;;;7.10;1.85;;;7.50;99.90;;;;;;4967323;29;20031;-63
2023/11/28 04:04:02;;;;;;;7.18;2.00;;;7.50;99.90;;;;;;4967567;28;20042;-63
2023/11/28 04:06:27;;;;;;;4.40;1.80;;;7.50;99.90;;;;;;4967338;29;20102;-63
2023/11/28 04:08:53;;;;;;;4.50;1.45;;;7.50;99.90;;;;;;4968507;28;20471;-65
2023/11/28 04:11:19;;;;;;;2.20;1.40;;;7.50;99.90;;;;;;4967201;28;20122;-64
2023/11/28 04:13:45;;;;;;;3.47;1.33;;;7.50;99.90;;;;;;4951249;29;20023;-64
2023/11/28 04:16:16;;;;;;;6.45;1.60;;;7.60;99.90;;;;;;4967109;28;20035;-63
2023/11/28 04:18:41;;;;;;;9.13;1.70;;;7.50;99.90;;;;;;4950520;29;20038;-63
2023/11/28 04:21:07;;;;;;;4.85;1.75;;;7.50;99.90;;;;;;4968346;29;20028;-63
2023/11/28 04:23:33;;;;;;;2.38;1.20;;;7.50;99.90;;;;;;4967195;28;20044;-64
2023/11/28 04:25:58;;;;;;;2.55;1.05;;;7.50;99.90;;;;;;4951195;29;20019;-64
2023/11/28 04:28:24;;;;;;;1.77;1.15;;;7.50;99.90;;;;;;4968484;28;20380;-64
2023/11/28 04:30:49;;;;;;;2.88;1.50;;;7.50;99.90;;;;;;4968190;28;20106;-63
2023/11/28 04:33:15;;;;;;;6.50;1.70;;;7.50;99.90;;;;;;4968164;29;20039;-63
2023/11/28 04:35:41;;;;;;;4.70;1.65;;;7.50;99.90;;;;;;4968188;29;20091;-63
2023/11/28 04:38:06;;;;;;;3.60;1.35;;;7.50;99.90;;;;;;4950754;29;20043;-63
2023/11/28 04:40:32;;;;;;;3.97;1.55;;;7.60;99.90;;;;;;4966557;28;20023;-64
2023/11/28 04:42:57;;;;;;;6.18;1.42;;;7.50;99.90;;;;;;4966776;28;20063;-63
2023/11/28 04:45:23;;;;;;;5.60;1.48;;;7.50;99.90;;;;;;4967921;28;20110;-64
2023/11/28 04:47:49;;;;;;;4.07;1.30;;;7.50;99.90;;;;;;4950574;29;20566;-63
2023/11/28 04:50:14;;;;;;;6.60;1.67;;;7.60;99.90;;;;;;4950631;29;20028;-63
2023/11/28 04:52:40;;;;;;;4.72;1.52;;;7.50;99.90;;;;;;4966761;28;20039;-63
2023/11/28 04:55:06;;;;;;;3.08;1.70;;;7.50;99.90;;;;;;4966836;28;20043;-63
2023/11/28 04:57:31;;;;;;;4.70;1.70;;;7.60;99.90;;;;;;4967689;29;20039;-63
2023/11/28 04:59:57;;;;;;;3.63;1.45;;;7.50;99.90;;;;;;4967736;28;20028;-63
2023/11/28 05:02:23;;;;;;;4.72;1.40;;;7.50;99.90;;;;;;4966586;29;20031;-63
2023/11/28 05:04:48;;;;;;;4.65;1.30;;;7.50;99.90;;;;;;4950573;29;20028;-63
2023/11/28 05:07:15;;;;;;;2.78;1.50;;;7.50;99.90;;;;;;4967762;28;20143;-63
2023/11/28 05:09:41;;;;;;;5.03;1.60;;;7.50;99.90;;;;;;4966714;28;20034;-63
2023/11/28 05:12:08;;;;;;;8.23;1.60;;;7.60;99.90;;;;;;4934730;29;20084;-63
2023/11/28 05:14:34;;;;;;;3.92;1.13;;;7.50;99.90;;;;;;4950567;29;20038;-63
2023/11/28 05:17:00;;;;;;;3.35;1.52;;;7.50;99.90;;;;;;4967632;29;20035;-63
2023/11/28 05:19:26;;;;;;;2.80;1.33;;;7.50;99.90;;;;;;4950535;29;20050;-63
2023/11/28 05:21:53;;;;;;;3.55;1.10;;;7.50;99.90;;;;;;4966365;28;20020;-63
2023/11/28 05:24:19;;;;;;;2.53;1.15;;;7.50;99.90;;;;;;4966359;28;20024;-62
2023/11/28 05:26:44;;;;;;;6.25;1.25;;;7.50;99.90;;;;;;4967644;28;20026;-63
2023/11/28 05:29:10;;;;;;;7.68;1.33;;;7.50;99.90;;;;;;4966532;28;20035;-63
2023/11/28 05:31:35;;;;;;;1.73;0.95;;;7.50;99.90;;;;;;4969980;28;20028;-63
2023/11/28 05:34:01;;;;;;;4.88;1.08;;;7.50;99.90;;;;;;4970076;28;20027;-63
2023/11/28 05:36:27;;;;;;;4.70;1.00;;;7.50;99.90;;;;;;4971111;28;20034;-62
2023/11/28 05:38:52;;;;;;;2.30;1.10;;;7.50;99.90;;;;;;4954064;29;20031;-64
2023/11/28 05:41:18;;;;;;;2.13;1.33;;;7.50;99.90;;;;;;4969827;29;20031;-63
2023/11/28 05:43:44;;;;;;;1.52;1.13;;;7.50;99.90;;;;;;4953760;28;20498;-62
2023/11/28 05:46:10;;;;;;;2.35;1.13;;;7.50;99.90;;;;;;4969765;28;20023;-63
2023/11/28 05:48:35;;;;;;;3.72;1.17;;;7.50;99.90;;;;;;4969734;28;20035;-63
2023/11/28 05:51:01;;;;;;;1.92;0.90;;;7.50;99.90;;;;;;4971116;29;20039;-64
2023/11/28 05:53:26;;;;;;;3.90;1.40;;;7.50;99.90;;;;;;4969656;29;20031;-63
2023/11/28 05:55:52;;;;;;;2.40;1.10;;;7.50;99.90;;;;;;4953616;29;20035;-62
2023/11/28 05:58:17;;;;;;;2.60;1.27;;;7.50;99.90;;;;;;4953603;28;20058;-63
2023/11/28 06:00:43;;;;;;;2.33;1.30;;;7.50;99.90;;;;;;4970818;28;20431;-63
2023/11/28 06:03:09;;;;;;;2.90;1.23;;;7.50;99.90;;;;;;4969374;28;20042;-63
2023/11/28 06:05:35;;;;;;;2.80;1.17;;;7.50;99.90;;;;;;4938171;29;20039;-63
2023/11/28 06:08:00;;;;;;;2.15;1.08;;;7.50;99.90;;;;;;4969844;28;20578;-63
2023/11/28 06:10:27;;;;;;;2.03;1.15;;;7.50;99.90;;;;;;4969673;28;20027;-63
2023/11/28 06:12:54;;;;;;;2.05;1.05;;;7.50;99.90;;;;;;4969141;28;20031;-63
2023/11/28 06:15:19;;;;;;;2.97;1.05;;;7.50;99.90;;;;;;4953655;29;20098;-63
2023/11/28 06:17:45;;;;;;;2.95;1.20;;;7.50;99.90;;;;;;4969333;28;20035;-63
2023/11/28 06:20:14;;;;;;;5.45;1.20;;;7.50;99.90;;;;;;4969272;29;20487;-62
2023/11/28 06:22:43;;;;;;;2.35;1.08;;;7.50;99.90;;;;;;4953759;29;20042;-63
2023/11/28 06:25:09;;;;;;;2.40;1.33;;;7.60;99.90;;;;;;4953586;29;20070;-63
2023/11/28 06:27:34;;;;;;;2.40;1.10;;;7.50;99.90;;;;;;4970041;28;20043;-62
2023/11/28 06:30:00;;;;;;;4.13;0.90;;;7.60;99.90;;;;;;4968700;29;20028;-62
2023/11/28 06:32:26;;;;;;;1.42;1.08;;;7.60;99.90;;;;;;4951461;29;20032;-63
2023/11/28 06:34:51;;;;;;;1.83;0.90;;;7.60;99.90;;;;;;4965763;29;20384;-62
2023/11/28 06:37:17;;;;;;;1.80;1.13;;;7.60;99.90;;;;;;4965370;29;20043;-64
2023/11/28 06:39:45;;;;;;;2.90;0.90;;;7.60;99.90;;;;;;4965589;29;20096;-64
2023/11/28 06:42:11;;;;;;;5.55;0.98;;;7.60;99.90;;;;;;4964284;28;20078;-63
2023/11/28 06:44:36;;;;;;;5.32;1.05;;;7.60;99.90;;;;;;4965638;29;20039;-63
2023/11/28 06:47:02;;;;;;;2.72;0.73;;;7.60;99.90;;;;;;4950735;29;20052;-63
2023/11/28 06:49:28;;;;;;;2.85;1.00;;;7.60;99.90;;;;;;4950737;29;20028;-63
2023/11/28 06:51:54;;;;;;;4.10;0.95;;;7.60;99.90;;;;;;4965343;29;20028;-63
2023/11/28 06:54:19;;;;;;;1.33;0.90;;;7.60;99.90;;;;;;4949271;29;20435;-63
2023/11/28 06:56:45;;;;;;;3.50;1.00;;;7.50;99.90;;;;;;4950603;29;20117;-63
2023/11/28 06:59:11;;;;;;;3.15;0.93;;;7.60;99.90;;;;;;4964983;28;20404;-63
2023/11/28 07:01:40;;;;;;;3.03;1.10;;;7.60;99.90;;;;;;4965103;29;20028;-63
2023/11/28 07:04:06;;;;;;;1.33;0.70;;;7.60;99.90;;;;;;4972813;28;20023;-63
2023/11/28 07:06:31;;;;;;;1.42;0.90;;;7.50;99.90;;;;;;4968634;28;20531;-63
2023/11/28 07:08:57;;;;;;;3.83;0.90;;;7.50;99.90;;;;;;4965437;29;20321;-63
2023/11/28 07:11:23;;;;;;;1.50;0.90;;;7.50;99.90;;;;;;4965011;29;20031;-63
2023/11/28 07:13:49;;;;;;;1.58;0.70;;;7.60;99.90;;;;;;4981354;28;20038;-63
2023/11/28 07:16:15;;;;;;;1.70;0.77;;;7.60;99.90;;;;;;4982088;28;20063;-63
2023/11/28 07:18:41;;;;;;;1.10;0.80;;;7.60;99.90;;;;;;4982260;28;20083;-63
2023/11/28 07:21:07;;;;;;;2.35;0.80;;;7.60;99.90;;;;;;4965835;29;20050;-63
2023/11/28 07:23:33;;;;;;;1.00;0.63;;;7.60;99.90;;;;;;4966441;28;20059;-64
2023/11/28 07:25:59;;;;;;;3.05;0.80;;;7.60;99.90;;;;;;4980261;28;20047;-63
2023/11/28 07:28:25;;;;;;;1.05;0.65;;;7.60;99.90;;;;;;4967194;29;20023;-63
2023/11/28 07:30:51;;;;;;;1.92;0.60;;;7.60;99.90;;;;;;4967335;28;20047;-63
2023/11/28 07:33:18;;;;;;;1.55;0.65;;;7.60;99.90;;;;;;4981988;28;20066;-63
2023/11/28 07:35:44;;;;;;;1.63;0.80;;;7.50;99.90;;;;;;4981702;28;20050;-63
2023/11/28 07:38:09;;;;;;;0.77;0.60;;;7.60;99.90;;;;;;4982164;28;20043;-61
2023/11/28 07:40:37;;;;;;;1.30;0.70;;;7.50;99.90;;;;;;4968813;29;20166;-63
2023/11/28 07:43:03;;;;;;;1.67;0.68;;;7.50;99.90;;;;;;4979274;28;20054;-63
2023/11/28 07:45:29;;;;;;;0.77;0.77;;;7.60;99.90;;;;;;4967001;29;20074;-63
2023/11/28 07:47:56;;;;;;;0.70;0.60;;;7.60;99.90;;;;;;4984218;28;20035;-63
2023/11/28 07:50:21;;;;;;;3.88;0.90;;;7.60;99.90;;;;;;4996619;28;20031;-63
2023/11/28 07:52:48;;;;;;;0.98;0.60;;;7.60;99.90;;;;;;4974015;28;20507;-63
2023/11/28 07:55:13;;;;;;;0.88;0.57;;;7.60;99.90;;;;;;4966736;28;20304;-63
2023/11/28 07:57:39;;;;;;;2.53;0.80;;;7.60;99.90;;;;;;4970701;28;20042;-63
2023/11/28 08:00:07;;;;;;;2.08;0.57;;;7.60;99.90;;;;;;4970237;28;20019;-63
2023/11/28 08:02:33;;;;;;;2.30;0.57;;;7.60;99.90;;;;;;4961008;29;20039;-63
2023/11/28 08:04:59;;;;;;;2.42;0.80;;;7.60;99.90;;;;;;4969895;28;20031;-63
2023/11/28 08:07:25;;;;;;;0.57;0.43;;;7.60;99.90;;;;;;4975053;28;20027;-63
2023/11/28 08:09:53;;;;;;;1.20;0.65;;;7.60;99.90;;;;;;4965759;28;20042;-63
2023/11/28 08:12:19;;;;;;;0.90;0.43;;;7.60;99.90;;;;;;4949461;28;20274;-63
2023/11/28 08:14:44;;;;;;;2.33;0.65;;;7.60;99.90;;;;;;4975955;28;20042;-63
2023/11/28 08:17:10;;;;;;;2.60;0.75;;;7.60;99.90;;;;;;4971234;28;20475;-63
2023/11/28 08:19:36;;;;;;;4.85;0.73;;;7.60;99.90;;;;;;4978234;28;20035;-64
2023/11/28 08:22:01;;;;;;;2.38;0.50;;;7.60;99.90;;;;;;4964064;29;20074;-63
2023/11/28 08:24:27;;;;;;;2.25;0.60;;;7.60;99.90;;;;;;4964422;29;20030;-62
2023/11/28 08:26:52;;;;;;;0.80;0.43;;;7.60;99.90;;;;;;4964707;28;20039;-63
2023/11/28 08:29:18;;;;;;;1.73;0.63;;;7.60;99.90;;;;;;4965593;28;20027;-63
2023/11/28 08:31:43;;;;;;;3.25;0.82;;;7.60;99.90;;;;;;4980200;28;20083;-63
2023/11/28 08:34:09;;;;;;;4.40;1.00;;;7.60;99.90;;;;;;4948287;29;20026;-63
2023/11/28 08:36:35;;;;;;;11.38;0.90;;;7.60;99.90;;;;;;4965464;28;20038;-63
2023/11/28 08:39:00;;;;;;;1.95;0.73;;;7.70;99.90;;;;;;4960652;28;20058;-65
2023/11/28 08:41:26;;;;;;;6.18;1.10;;;7.70;99.90;;;;;;4963263;29;20023;-63
2023/11/28 08:43:52;;;;;;;4.30;0.82;;;7.60;99.90;;;;;;4966675;28;20023;-64
2023/11/28 08:46:18;;;;;;;10.88;1.23;;;7.70;99.90;;;;;;4981120;28;20031;-64
2023/11/28 08:48:44;;;;;;;6.10;1.00;;;7.60;99.90;;;;;;4981415;28;20050;-63
2023/11/28 08:51:09;;;;;;;10.00;1.17;;;7.70;99.90;;;;;;4966811;28;20034;-61
2023/11/28 08:53:35;;;;;;;17.25;1.77;;;7.70;99.90;;;;;;4980699;28;20027;-64
2023/11/28 08:56:01;;;;;;;12.02;1.42;;;7.70;99.90;;;;;;4965410;29;20024;-60
2023/11/28 08:58:26;;;;;;;11.02;1.52;;;7.60;99.90;;;;;;4947083;29;20075;-64
2023/11/28 09:00:53;;;;;;;16.98;1.60;;;7.60;99.90;;;;;;4966948;28;20067;-63
2023/11/28 09:03:21;;;;;;;12.60;2.03;;;7.60;99.90;;;;;;4981652;28;20051;-64
2023/11/28 09:05:47;;;;;;;19.85;1.95;;;7.60;99.90;;;;;;4966156;28;20095;-63
2023/11/28 09:08:12;;;;;;;12.75;1.40;;;7.60;99.90;;;;;;4966253;28;20031;-63
2023/11/28 09:10:38;;;;;;;11.95;1.73;;;7.70;99.90;;;;;;4982040;28;20050;-63
2023/11/28 09:13:04;;;;;;;11.30;1.55;;;7.70;99.90;;;;;;4969807;29;20488;-63
2023/11/28 09:15:29;;;;;;;10.90;1.23;;;7.60;99.90;;;;;;4967248;28;20038;-62
2023/11/28 09:17:55;;;;;;;30.15;3.17;;;7.60;99.90;;;;;;4969139;28;20036;-62
2023/11/28 09:20:21;;;;;;;68.40;5.30;;;7.70;99.90;;;;;;4984447;28;20525;-63
2023/11/28 09:22:49;;;;;;;23.52;2.70;;;7.70;99.90;;;;;;4966726;28;20399;-63
2023/11/28 09:25:15;;;;;;;32.20;3.80;;;7.70;99.90;;;;;;4980954;28;20023;-63
2023/11/28 09:27:41;;;;;;;35.10;4.13;;;7.70;99.90;;;;;;4968940;29;20039;-63
2023/11/28 09:30:07;;;;;;;18.42;2.22;;;7.70;99.90;;;;;;4982823;28;20026;-62
2023/11/28 09:32:33;;;;;;;16.90;1.67;;;7.70;99.90;;;;;;4966489;28;20046;-62
2023/11/28 09:34:58;;;;;;;35.83;2.42;;;7.70;99.90;;;;;;4967198;28;20030;-62
2023/11/28 09:37:24;;;;;;;18.85;2.60;;;7.70;99.90;;;;;;4984043;28;20042;-63
2023/11/28 09:39:50;;;;;;;22.45;2.20;;;7.70;99.90;;;;;;4980391;28;20042;-62
2023/11/28 09:42:15;;;;;;;22.80;2.33;;;7.70;99.90;;;;;;4967265;28;20086;-62
2023/11/28 09:44:45;;;;;;;22.60;2.75;;;7.60;99.90;;;;;;4966660;29;20031;-63
2023/11/28 09:47:11;;;;;;;24.05;2.35;;;7.70;99.90;;;;;;4966963;29;20023;-63
2023/11/28 09:49:41;;;;;;;24.38;3.28;;;7.70;99.90;;;;;;4965155;29;20035;-62
2023/11/28 09:52:08;;;;;;;34.88;2.78;;;7.70;99.90;;;;;;4980364;28;20031;-63
2023/11/28 09:54:34;;;;;;;22.92;2.55;;;7.70;99.90;;;;;;4965755;29;20055;-63
2023/11/28 09:57:00;;;;;;;36.92;4.45;;;7.70;99.90;;;;;;4982604;28;20035;-63
2023/11/28 09:59:27;;;;;;;26.80;2.70;;;7.70;99.90;;;;;;4983841;28;20135;-63
2023/11/28 10:01:52;;;;;;;21.73;2.70;;;7.70;99.90;;;;;;4982340;28;20031;-63
2023/11/28 10:04:21;;;;;;;21.25;2.17;;;7.70;99.90;;;;;;4969934;28;20106;-62
2023/11/28 10:06:49;;;;;;;33.88;3.63;;;7.70;99.90;;;;;;4982197;28;20038;-63
2023/11/28 10:09:16;;;;;;;33.67;2.95;;;7.70;99.90;;;;;;4989142;28;20028;-63
2023/11/28 10:11:42;;;;;;;34.03;4.75;;;7.70;99.90;;;;;;4986686;28;20155;-63
2023/11/28 10:14:08;;;;;;;47.42;4.78;;;7.70;99.90;;;;;;4974615;28;20038;-63
2023/11/28 10:16:43;;;;;;;53.80;6.65;;;7.80;99.90;;;;;;4980272;28;20039;-61
2023/11/28 10:19:09;;;;;;;42.90;5.18;;;7.70;99.90;;;;;;4989738;28;20102;-61
2023/11/28 10:21:35;;;;;;;47.65;5.35;;;7.80;99.90;;;;;;4964180;28;20042;-62
2023/11/28 10:24:01;;;;;;;72.50;6.28;;;7.80;99.90;;;;;;4982800;28;20034;-61
2023/11/28 10:26:27;;;;;;;58.97;6.35;;;7.80;99.90;;;;;;4978115;28;20031;-61
2023/11/28 10:28:52;;;;;;;60.45;5.93;;;7.80;99.90;;;;;;4980674;28;20031;-61
2023/11/28 10:31:18;;;;;;;74.22;6.68;;;7.80;99.90;;;;;;4985445;28;20039;-61
2023/11/28 10:33:44;;;;;;;80.13;8.05;;;7.80;99.90;;;;;;4950699;29;21355;-62
2023/11/28 10:36:10;;;;;;;49.75;5.18;;;7.80;99.90;;;;;;4961696;28;20036;-61
2023/11/28 10:38:37;;;;;;;63.75;5.35;;;7.80;99.90;;;;;;4977731;28;20067;-61
2023/11/28 10:41:02;;;;;;;61.65;6.38;;;7.80;99.90;;;;;;4963583;28;20067;-61
2023/11/28 10:43:29;;;;;;;40.33;5.25;;;7.80;99.90;;;;;;4965292;28;20027;-61
2023/11/28 10:45:55;;;;;;;47.38;5.47;;;7.80;99.90;;;;;;4979024;28;20041;-61
2023/11/28 10:48:20;;;;;;;38.55;4.00;;;7.80;99.90;;;;;;4979992;28;20067;-61
2023/11/28 10:50:46;;;;;;;54.95;7.03;;;7.80;99.90;;;;;;4979344;28;20074;-61
2023/11/28 10:53:13;;;;;;;43.72;5.70;;;7.80;99.90;;;;;;4977678;28;20119;-64
2023/11/28 10:55:49;;;;;;;43.60;5.63;;;7.80;99.90;;;;;;4964504;28;20035;-62
2023/11/28 10:58:17;;;;;;;42.15;5.07;;;7.80;99.90;;;;;;4966865;28;20431;-61
2023/11/28 11:00:45;;;;;;;44.70;6.45;;;7.80;99.90;;;;;;4967518;28;20051;-61
2023/11/28 11:03:14;;;;;;;41.25;5.25;;;7.80;99.90;;;;;;4964441;29;20035;-61
2023/11/28 11:05:43;;;;;;;70.07;6.57;;;7.80;99.90;;;;;;4976394;28;20036;-61
2023/11/28 11:08:09;;;;;;;45.55;5.45;;;7.70;99.90;;;;;;4960802;28;20495;-63
2023/11/28 11:10:35;;;;;;;56.38;6.07;;;7.70;99.90;;;;;;4961666;28;20031;-63
2023/11/28 11:13:39;;;;;;;41.22;4.75;;;7.70;99.90;;;;;;4962970;28;20055;-63
2023/11/28 11:16:11;;;;;;;48.20;6.40;;;7.70;99.90;;;;;;4964141;28;20140;-63
2023/11/28 11:18:48;;;;;;;55.13;7.28;;;7.70;99.90;;;;;;4967134;28;20035;-63
2023/11/28 11:21:28;;;;;;;39.78;5.60;;;7.70;99.90;;;;;;4980744;28;20031;-62
2023/11/28 11:23:54;;;;;;;36.40;5.15;;;7.70;99.90;;;;;;4974096;28;20024;-62
2023/11/28 11:26:39;;;;;;;48.05;5.10;;;7.70;99.90;;;;;;4980133;28;20074;-62
2023/11/28 11:29:25;;;;;;;46.25;5.35;;;7.70;99.90;;;;;;4984700;28;20467;-63
2023/11/28 11:31:51;;;;;;;29.13;3.97;;;7.70;99.90;;;;;;4964498;28;20046;-63
2023/11/28 11:34:34;;;;;;;178.32;16.92;;;7.60;99.90;;;;;;4959314;28;20031;-63
2023/11/28 11:37:10;;;;;;;38.92;4.78;;;7.70;99.90;;;;;;4960532;28;20043;-63
2023/11/28 11:39:40;;;;;;;55.75;5.53;;;7.60;99.90;;;;;;4960659;28;20054;-63
2023/11/28 11:42:12;;;;;;;35.20;5.03;;;7.60;99.90;;;;;;4964174;28;20039;-63
2023/11/28 11:44:41;;;;;;;49.13;6.45;;;7.60;99.90;;;;;;4982899;28;20029;-63
2023/11/28 11:47:16;;;;;;;50.00;6.20;;;7.60;99.90;;;;;;4959616;28;20031;-63
2023/11/28 11:49:42;;;;;;;56.13;5.93;;;7.70;99.90;;;;;;4978648;28;20099;-63
2023/11/28 11:52:08;;;;;;;57.78;6.72;;;7.70;99.90;;;;;;4976940;28;20169;-64
2023/11/28 11:54:34;;;;;;;47.70;6.28;;;7.70;99.90;;;;;;4961993;28;20034;-63
2023/11/28 11:56:59;;;;;;;46.42;6.50;;;7.70;99.90;;;;;;4962520;28;20043;-63
2023/11/28 11:59:27;;;;;;;48.78;5.78;;;7.70;99.80;;;;;;4976242;28;20546;-63
2023/11/28 12:01:52;;;;;;;53.85;6.53;;;7.70;99.90;;;;;;4975893;28;20145;-63
2023/11/28 12:04:18;;;;;;;27.60;4.57;;;7.70;99.70;;;;;;4963293;28;20031;-63
2023/11/28 12:06:44;;;;;;;35.78;5.30;;;7.70;99.50;;;;;;4964029;29;20059;-63
2023/11/28 12:09:10;;;;;;;51.10;4.88;;;7.70;99.40;;;;;;4965235;28;20031;-63
2023/11/28 12:11:35;;;;;;;60.42;6.15;;;7.70;99.40;;;;;;4978565;28;20126;-63
2023/11/28 12:14:01;;;;;;;59.38;7.07;;;7.70;99.40;;;;;;4973861;28;20120;-63
2023/11/28 12:16:28;;;;;;;30.55;4.47;;;7.60;99.40;;;;;;4963381;29;20083;-63
2023/11/28 12:18:53;;;;;;;28.77;5.07;;;7.70;99.30;;;;;;4981111;28;20062;-63
2023/11/28 12:21:19;;;;;;;36.10;4.30;;;7.60;99.10;;;;;;4980750;28;20038;-63
2023/11/28 12:23:46;;;;;;;37.20;5.78;;;7.60;99.10;;;;;;4966115;29;20487;-63
2023/11/28 12:26:11;;;;;;;34.90;5.20;;;7.60;99.10;;;;;;4975894;28;20114;-64
2023/11/28 12:28:37;;;;;;;26.98;3.83;;;7.60;99.00;;;;;;4987173;28;20043;-63
2023/11/28 12:31:03;;;;;;;31.02;6.78;;;7.60;98.90;;;;;;4968014;28;20063;-63
2023/11/28 12:33:32;;;;;;;38.28;3.90;;;7.60;98.80;;;;;;4964175;28;20062;-63
2023/11/28 12:35:57;;;;;;;29.95;4.65;;;7.60;98.70;;;;;;4962288;28;20035;-63
2023/11/28 12:38:23;;;;;;;41.88;3.80;;;7.60;98.70;;;;;;4979222;28;20039;-62
2023/11/28 12:40:49;;;;;;;31.00;4.53;;;7.60;98.70;;;;;;4965809;28;20182;-63
2023/11/28 12:43:21;;;;;;;37.75;4.07;;;7.60;98.50;;;;;;4963635;28;20031;-62
2023/11/28 12:45:47;;;;;;;45.22;4.90;;;7.60;98.50;;;;;;4961133;28;20031;-63